Map

Track Data

SID SEASON NUMBER BASIN SUBBASIN NAME ISO_TIME NATURE LAT LON WMO_WIND WMO_PRES WMO_AGENCY TRACK_TYPE DIST2LAND LANDFALL IFLAG USA_AGENCY USA_ATCF_ID USA_LAT USA_LON USA_RECORD USA_STATUS USA_WIND USA_PRES USA_SSHS USA_R34_NE USA_R34_SE USA_R34_SW USA_R34_NW USA_R50_NE USA_R50_SE USA_R50_SW USA_R50_NW USA_R64_NE USA_R64_SE USA_R64_SW USA_R64_NW USA_POCI USA_ROCI USA_RMW USA_EYE TOKYO_LAT TOKYO_LON TOKYO_GRADE TOKYO_WIND TOKYO_PRES TOKYO_R50_DIR TOKYO_R50_LONG TOKYO_R50_SHORT TOKYO_R30_DIR TOKYO_R30_LONG TOKYO_R30_SHORT TOKYO_LAND CMA_LAT CMA_LON CMA_CAT CMA_WIND CMA_PRES HKO_LAT HKO_LON HKO_CAT HKO_WIND HKO_PRES NEWDELHI_LAT NEWDELHI_LON NEWDELHI_GRADE NEWDELHI_WIND NEWDELHI_PRES NEWDELHI_CI NEWDELHI_DP NEWDELHI_POCI REUNION_LAT REUNION_LON REUNION_TYPE REUNION_WIND REUNION_PRES REUNION_TNUM REUNION_CI REUNION_RMW REUNION_R34_NE REUNION_R34_SE REUNION_R34_SW REUNION_R34_NW REUNION_R50_NE REUNION_R50_SE REUNION_R50_SW REUNION_R50_NW REUNION_R64_NE REUNION_R64_SE REUNION_R64_SW REUNION_R64_NW BOM_LAT BOM_LON BOM_TYPE BOM_WIND BOM_PRES BOM_TNUM BOM_CI BOM_RMW BOM_R34_NE BOM_R34_SE BOM_R34_SW BOM_R34_NW BOM_R50_NE BOM_R50_SE BOM_R50_SW BOM_R50_NW BOM_R64_NE BOM_R64_SE BOM_R64_SW BOM_R64_NW BOM_ROCI BOM_POCI BOM_EYE BOM_POS_METHOD BOM_PRES_METHOD NADI_LAT NADI_LON NADI_CAT NADI_WIND NADI_PRES WELLINGTON_LAT WELLINGTON_LON WELLINGTON_WIND WELLINGTON_PRES DS824_LAT DS824_LON DS824_STAGE DS824_WIND DS824_PRES TD9636_LAT TD9636_LON TD9636_STAGE TD9636_WIND TD9636_PRES TD9635_LAT TD9635_LON TD9635_WIND TD9635_PRES TD9635_ROCI NEUMANN_LAT NEUMANN_LON NEUMANN_CLASS NEUMANN_WIND NEUMANN_PRES MLC_LAT MLC_LON MLC_CLASS MLC_WIND MLC_PRES USA_GUST BOM_GUST BOM_GUST_PER REUNION_GUST REUNION_GUST_PER USA_SEAHGT USA_SEARAD_NE USA_SEARAD_SE USA_SEARAD_SW USA_SEARAD_NW STORM_SPEED STORM_DIR
2015203N16126 2015 48 WP MM NOT_NAMED 2015-07-22 00:00:00 NR 16.3000 125.500 main 287 268 O_____________ jtwc_wp WP122015 16.3000 125.500 DB 15 1008 -3 10 264
2015203N16126 2015 48 WP MM NOT_NAMED 2015-07-22 03:00:00 NR 16.2479 124.965 main 257 227 P_____________ WP122015 16.2479 124.965 DB 15 1009 -3 10 264
2015203N16126 2015 48 WP MM NOT_NAMED 2015-07-22 06:00:00 NR 16.2000 124.500 main 227 197 O_____________ jtwc_wp WP122015 16.2000 124.500 DB 15 1010 -3 8 264
2015203N16126 2015 48 WP MM NOT_NAMED 2015-07-22 09:00:00 NR 16.1699 124.155 main 197 168 P_____________ WP122015 16.1699 124.155 DB 15 1010 -3 6 270
2015203N16126 2015 48 WP MM NOT_NAMED 2015-07-22 12:00:00 NR 16.2000 123.900 main 168 144 O_____________ jtwc_wp WP122015 16.2000 123.900 DB 15 1010 -3 5 288
2015203N16126 2015 48 WP MM NOT_NAMED 2015-07-22 15:00:00 NR 16.3200 123.670 main 144 115 P_____________ WP122015 16.3200 123.670 DB 17 1008 -3 5 308
2015203N16126 2015 48 WP MM NOT_NAMED 2015-07-22 18:00:00 NR 16.5000 123.500 main 115 98 O_____________ jtwc_wp WP122015 16.5000 123.500 DB 20 1007 -3 5 322
2015203N16126 2015 48 WP MM NOT_NAMED 2015-07-22 21:00:00 NR 16.6775 123.377 main 98 74 P_____________ WP122015 16.6775 123.377 DB 22 1005 -3 5 333
2015203N16126 2015 48 WP MM NOT_NAMED 2015-07-23 00:00:00 TS 16.9800 123.240 main 74 74 O_O___________ jtwc_wp WP122015 16.9000 123.300 TD 25 1004 -1 1010 150 45 17.3000 123.000 0 19 1010 6 342
2015203N16126 2015 48 WP MM NOT_NAMED 2015-07-23 03:00:00 TS 17.2775 123.173 main 81 81 P_P___________ WP122015 17.2150 123.235 TD 27 1002 -1 1009 145 45 17.4025 123.050 0 22 1010 5 351
2015203N16126 2015 48 WP MM NOT_NAMED 2015-07-23 06:00:00 TS 17.5000 123.157 main 87 87 O_O___________ jtwc_wp WP122015 17.5000 123.200 TD 30 1000 -1 1008 140 45 17.5000 123.100 1 25 1010 3 356
2015203N16126 2015 48 WP MM NOT_NAMED 2015-07-23 09:00:00 TS 17.6075 123.168 main 91 91 P_P___________ WP122015 17.6225 123.185 TD 30 1000 -1 1008 140 45 17.5925 123.150 1 25 1010 2 13
2015203N16126 2015 48 WP MM NOT_NAMED 2015-07-23 12:00:00 TS 17.7000 123.200 main 95 95 O_O___________ jtwc_wp WP122015 17.7000 123.200 TD 30 1000 -1 1008 140 45 17.7000 123.200 1 25 1010 3 11
2015203N16126 2015 48 WP MM NOT_NAMED 2015-07-23 15:00:00 TS 17.8650 123.231 main 105 105 P_P___________ WP122015 17.8725 123.227 TD 32 998 -1 1008 140 45 17.8575 123.235 1 25 1010 3 17
2015203N16126 2015 48 WP MM NOT_NAMED 2015-07-23 18:00:00 TS 18.0000 123.300 main 110 110 O_O___________ jtwc_wp WP122015 18.0000 123.300 TS 35 996 0 1008 140 45 18.0000 123.300 1 25 1010 3 47
2015203N16126 2015 48 WP MM NOT_NAMED 2015-07-23 21:00:00 TS 18.0412 123.427 main 120 120 P_P___________ WP122015 17.9875 123.428 TS 35 996 0 1008 140 40 18.0950 123.427 1 25 1010 3 90
2015203N16126 2015 48 WP MM NOT_NAMED 2015-07-24 00:00:00 TS 18.0000 123.600 main 141 141 O_O___________ jtwc_wp WP122015 17.9000 123.600 TS 35 996 0 20 45 1008 140 35 18.1000 123.600 1 25 1010 4 116
2015203N16126 2015 48 WP MM NOT_NAMED 2015-07-24 03:00:00 TS 17.8787 123.778 main 162 158 P_P___________ WP122015 17.7924 123.763 TS 35 996 0 20 45 1008 140 35 17.9650 123.793 1 27 1009 5 123
2015203N16126 2015 48 WP MM NOT_NAMED 2015-07-24 06:00:00 TS 17.7500 124.000 main 178 175 O_O___________ jtwc_wp WP122015 17.7000 124.000 TS 35 996 0 20 45 1008 140 35 17.8000 124.000 1 29 1008 5 111
2015203N16126 2015 48 WP MM NOT_NAMED 2015-07-24 09:00:00 TS 17.6913 124.285 main 206 206 P_P___________ WP122015 17.6702 124.385 TS 35 996 0 20 45 1008 140 35 17.7124 124.185 1 29 1008 6 95
2015203N16126 2015 48 WP MM NOT_NAMED 2015-07-24 12:00:00 TS 17.7000 124.600 main 236 236 O_O___________ jtwc_wp WP122015 17.7000 124.800 TS 35 996 0 20 45 1008 140 35 17.7000 124.400 1 29 1008 6 82
2015203N16126 2015 48 WP MM NOT_NAMED 2015-07-24 15:00:00 TS 17.7737 124.900 main 269 269 P_P___________ WP122015 17.7774 125.122 TS 30 1000 -1 1008 145 37 17.7700 124.677 1 29 1008 6 71
2015203N16126 2015 48 WP MM NOT_NAMED 2015-07-24 18:00:00 TS 17.9000 125.200 main 303 303 O_O___________ jtwc_wp WP122015 17.9000 125.400 TD 25 1004 -1 1008 150 40 17.9000 125.000 1 29 1008 6 68
2015203N16126 2015 48 WP MM NOT_NAMED 2015-07-24 21:00:00 TS 18.0125 125.519 main 337 337 P_P___________ WP122015 18.0125 125.673 TD 22 1005 -1 1008 150 40 18.0126 125.365 1 29 1008 6 62
2015203N16126 2015 48 WP MM NOT_NAMED 2015-07-25 00:00:00 TS 18.2000 125.786 main 369 369 O_O___________ jtwc_wp WP122015 18.2000 125.900 DB 20 1007 -3 1008 150 40 18.2000 125.700 1 29 1008 6 43
2015203N16126 2015 48 WP MM NOT_NAMED 2015-07-25 03:00:00 TS 18.4875 125.981 main 390 390 P_P___________ WP122015 18.5125 126.067 DB 20 1007 -3 1008 150 40 18.4749 125.938 1 27 1009 8 24
2015203N16126 2015 48 WP MM NOT_NAMED 2015-07-25 06:00:00 TS 18.9000 126.120 main 404 404 O_O___________ jtwc_wp WP122015 18.9000 126.200 DB 20 1007 -3 1008 150 40 18.9000 126.100 1 25 1010 10 10
2015203N16126 2015 48 WP MM NOT_NAMED 2015-07-25 09:00:00 TS 19.4823 126.163 main 428 428 __P___________ WP122015 DB -3 19.4823 126.163 1 25 1010 13 7
2015203N16126 2015 48 WP MM NOT_NAMED 2015-07-25 12:00:00 TS 20.2000 126.300 main 465 465 __O___________ 20.2000 126.300 1 25 1010 16 18
2015203N16126 2015 48 WP MM NOT_NAMED 2015-07-25 15:00:00 TS 20.9855 126.673 main 544 544 __P___________ 20.9855 126.673 1 22 1011 18 28
2015203N16126 2015 48 WP MM NOT_NAMED 2015-07-25 18:00:00 TS 21.8000 127.200 main 613 __O___________ 21.8000 127.200 0 19 1012 19 31

Digital Typhoon Data and Search

About IBTrACS Database

This database is a web-friendly format of International Best Track Archive for Climate Stewardship (IBTrACS), a global best track data archive curated by NOAA dating back to 1842.

Updated: 2021-10-19